Time;durP1;ratioP1;P1;durP2;ratioP2;P2;SDS_P1;SDS_P2;PMS_P1;PMS_P2;Temp;Humidity;BMP_temperature;BMP_pressure;BME280_temperature;BME280_humidity;BME280_pressure;Samples;Min_cycle;Max_cycle;Signal;HPM_P1;HPM_P2
2021/05/30 00:00:15;;;;;;;14.80;9.38;;;23.80;56.90;;;;;;4882688;29;19938;-91
2021/05/30 00:02:41;;;;;;;8.57;7.35;;;23.80;57.10;;;;;;4864075;29;20035;-92
2021/05/30 00:05:08;;;;;;;;;;;23.80;57.40;;;;;;4872082;29;20055;-91
2021/05/30 00:07:35;;;;;;;12.98;10.02;;;23.80;57.10;;;;;;4876776;29;19927;-91
2021/05/30 00:10:02;;;;;;;9.88;8.05;;;23.80;57.20;;;;;;4875466;29;20039;-91
2021/05/30 00:12:31;;;;;;;10.30;8.02;;;23.80;57.60;;;;;;4875358;29;20047;-92
2021/05/30 00:14:57;;;;;;;13.70;8.55;;;23.80;57.80;;;;;;4871818;29;20051;-92
2021/05/30 00:17:24;;;;;;;9.90;7.10;;;23.90;58.00;;;;;;4873960;29;20051;-91
2021/05/30 00:19:50;;;;;;;8.98;7.93;;;23.90;58.10;;;;;;4871805;29;20125;-93
2021/05/30 00:22:17;;;;;;;;;;;23.90;58.20;;;;;;4881438;29;20054;-90
2021/05/30 00:25:18;;;;;;;;;;;23.90;58.00;;;;;;4907556;29;19931;-96
2021/05/30 00:27:45;;;;;;;9.10;5.72;;;23.90;57.50;;;;;;5093241;24;19939;-93
2021/05/30 00:30:11;;;;;;;;;;;23.90;56.80;;;;;;4844635;29;20122;-92
2021/05/30 00:32:38;;;;;;;7.72;5.70;;;23.80;56.70;;;;;;4826703;29;19931;-93
2021/05/30 00:35:04;;;;;;;;;;;23.80;56.60;;;;;;4846220;29;20035;-92
2021/05/30 00:37:31;;;;;;;7.78;6.47;;;23.70;56.80;;;;;;4843603;29;19942;-91
2021/05/30 00:39:57;;;;;;;;;;;23.70;56.80;;;;;;4844707;29;20040;-92
2021/05/30 00:42:24;;;;;;;7.95;6.05;;;23.60;56.90;;;;;;4844948;29;19927;-92
2021/05/30 00:44:51;;;;;;;;;;;23.60;57.90;;;;;;4876337;29;20111;-93
2021/05/30 00:47:17;;;;;;;11.82;6.95;;;23.60;56.60;;;;;;4877613;29;19939;-92
2021/05/30 00:49:44;;;;;;;;;;;23.60;56.70;;;;;;4893542;29;20040;-92
2021/05/30 00:52:11;;;;;;;11.32;7.13;;;23.60;56.70;;;;;;4889039;29;19945;-92
2021/05/30 00:54:42;;;;;;;8.13;6.72;;;23.60;56.80;;;;;;4879232;29;20055;-92
2021/05/30 00:57:09;;;;;;;8.43;7.10;;;23.60;57.40;;;;;;4859601;29;20057;-92
2021/05/30 00:59:38;;;;;;;7.55;5.40;;;23.60;57.60;;;;;;4839787;29;20047;-91
2021/05/30 01:02:05;;;;;;;6.80;6.18;;;23.60;57.40;;;;;;4839828;29;20518;-92
2021/05/30 01:04:36;;;;;;;8.48;5.97;;;23.50;57.00;;;;;;4849967;29;20047;-95
2021/05/30 01:07:03;;;;;;;7.65;5.85;;;23.50;57.10;;;;;;4849303;29;20044;-94
2021/05/30 01:09:31;;;;;;;7.97;6.18;;;23.50;57.10;;;;;;4828132;29;20045;-95
2021/05/30 01:11:58;;;;;;;7.13;6.15;;;23.40;57.10;;;;;;4841902;29;20131;-90
2021/05/30 01:14:24;;;;;;;;;;;23.40;57.00;;;;;;4844298;29;20055;-92
2021/05/30 01:16:51;;;;;;;9.52;6.10;;;23.40;56.90;;;;;;4846430;29;19928;-91
2021/05/30 01:19:18;;;;;;;;;;;23.50;56.50;;;;;;4848212;29;20036;-92
2021/05/30 01:21:45;;;;;;;12.98;8.15;;;23.40;56.40;;;;;;4832989;29;19938;-93
2021/05/30 01:24:13;;;;;;;12.25;9.25;;;23.40;56.50;;;;;;4854322;29;20059;-93
2021/05/30 01:26:40;;;;;;;16.58;10.70;;;23.30;56.90;;;;;;4833268;29;20515;-92
2021/05/30 01:29:07;;;;;;;16.95;12.20;;;23.20;57.20;;;;;;4860944;29;20051;-92
2021/05/30 01:31:34;;;;;;;;;;;23.20;57.50;;;;;;4877757;29;20055;-92
2021/05/30 01:34:00;;;;;;;19.17;11.68;;;23.20;57.50;;;;;;4892903;29;19969;-93
2021/05/30 01:36:30;;;;;;;;;;;23.20;57.30;;;;;;4889581;29;20043;-94
2021/05/30 01:38:56;;;;;;;17.48;12.15;;;23.10;57.50;;;;;;4900135;29;20374;-92
2021/05/30 01:41:23;;;;;;;17.73;11.52;;;23.20;57.40;;;;;;4882904;29;20115;-92
2021/05/30 01:43:49;;;;;;;;;;;23.10;57.40;;;;;;4836894;29;20040;-93
2021/05/30 01:46:16;;;;;;;16.45;11.82;;;23.10;57.50;;;;;;4866105;29;19927;-94
2021/05/30 01:48:43;;;;;;;;;;;23.10;57.40;;;;;;4864530;29;20561;-93
2021/05/30 01:51:10;;;;;;;20.15;12.18;;;23.10;57.40;;;;;;4862978;29;19931;-92
2021/05/30 01:53:47;;;;;;;;;;;23.10;57.30;;;;;;4868477;29;20046;-92
2021/05/30 01:58:43;;;;;;;17.60;12.27;;;23.30;57.10;;;;;;4849858;29;20527;-92
2021/05/30 02:01:14;;;;;;;21.08;13.43;;;23.30;57.10;;;;;;4855277;29;20534;-93
2021/05/30 02:03:42;;;;;;;18.27;13.93;;;23.40;57.30;;;;;;4866764;29;20554;-92
2021/05/30 02:06:08;;;;;;;18.10;13.25;;;23.50;57.60;;;;;;4851309;29;20139;-92
2021/05/30 02:08:36;;;;;;;;;;;23.50;57.50;;;;;;4867114;29;20044;-92
2021/05/30 02:11:03;;;;;;;22.17;13.70;;;23.60;57.30;;;;;;4869697;29;19938;-92
2021/05/30 02:13:29;;;;;;;;;;;23.70;56.80;;;;;;4870888;29;20164;-93
2021/05/30 02:15:56;;;;;;;18.02;13.43;;;23.80;56.70;;;;;;4869527;29;20010;-94
2021/05/30 02:18:22;;;;;;;21.70;13.70;;;23.90;56.40;;;;;;4869368;29;20043;-92
2021/05/30 02:20:49;;;;;;;;;;;23.90;56.20;;;;;;4864259;29;20048;-92
2021/05/30 02:27:22;;;;;;;19.75;12.75;;;24.10;56.00;;;;;;4913810;29;20135;-93
2021/05/30 02:29:52;;;;;;;19.05;13.15;;;24.20;55.70;;;;;;4850484;29;20062;-91
2021/05/30 02:32:19;;;;;;;17.40;12.30;;;24.20;55.90;;;;;;4850866;29;20118;-91
2021/05/30 02:34:46;;;;;;;19.85;13.45;;;24.30;55.80;;;;;;4867692;29;20079;-89
2021/05/30 02:37:16;;;;;;;25.58;13.85;;;24.30;55.90;;;;;;4851644;29;20049;-92
2021/05/30 02:39:43;;;;;;;21.23;13.65;;;24.40;55.80;;;;;;4850290;29;20050;-91
2021/05/30 02:42:10;;;;;;;17.05;11.60;;;24.40;55.70;;;;;;4852524;29;20043;-92
2021/05/30 02:45:14;;;;;;;18.15;11.63;;;24.50;55.50;;;;;;4856596;29;20062;-91
2021/05/30 02:47:40;;;;;;;15.80;10.95;;;24.50;55.10;;;;;;4883340;29;20067;-92
2021/05/30 02:50:07;;;;;;;;;;;24.50;54.80;;;;;;4865455;29;20463;-91
2021/05/30 02:52:33;;;;;;;18.58;12.02;;;24.50;54.80;;;;;;4878400;29;19930;-91
2021/05/30 02:55:00;;;;;;;13.68;10.18;;;24.60;54.60;;;;;;4854712;29;20040;-92
2021/05/30 02:57:26;;;;;;;17.00;11.13;;;24.70;54.70;;;;;;4853714;29;20174;-90
2021/05/30 02:59:53;;;;;;;13.90;10.55;;;24.80;54.80;;;;;;4857378;29;20047;-93
2021/05/30 03:02:19;;;;;;;;;;;24.80;54.70;;;;;;4856853;29;20043;-92
2021/05/30 03:04:45;;;;;;;15.57;10.02;;;24.80;54.40;;;;;;4870343;29;19927;-90
2021/05/30 03:07:12;;;;;;;17.60;9.70;;;24.90;54.00;;;;;;4853467;29;20123;-89
2021/05/30 03:09:38;;;;;;;;;;;25.00;53.90;;;;;;4852813;29;20047;-93
2021/05/30 03:12:06;;;;;;;15.48;9.77;;;25.00;53.90;;;;;;4868788;29;19926;-90
2021/05/30 03:14:32;;;;;;;15.00;9.48;;;25.10;53.70;;;;;;4855008;29;20047;-91
2021/05/30 03:16:59;;;;;;;13.25;10.23;;;25.10;53.40;;;;;;4858102;29;20086;-91
2021/05/30 03:19:25;;;;;;;13.75;8.82;;;25.20;53.50;;;;;;4850184;29;20047;-90
2021/05/30 03:21:51;;;;;;;;;;;25.20;53.60;;;;;;4849418;29;20074;-91
2021/05/30 03:24:17;;;;;;;11.73;8.50;;;25.30;53.80;;;;;;4867293;29;20397;-90
2021/05/30 03:26:44;;;;;;;8.23;7.13;;;25.40;53.50;;;;;;4849727;29;20036;-92
2021/05/30 03:29:10;;;;;;;;;;;25.50;53.10;;;;;;4849272;29;20047;-91
2021/05/30 03:31:37;;;;;;;15.10;7.65;;;25.60;53.10;;;;;;4861190;29;20374;-89
2021/05/30 03:34:03;;;;;;;12.00;7.93;;;25.80;52.50;;;;;;4894774;29;20414;-90
2021/05/30 03:36:32;;;;;;;11.25;8.15;;;25.90;52.00;;;;;;4897882;29;20054;-92
2021/05/30 03:39:01;;;;;;;11.00;7.63;;;26.00;52.00;;;;;;4895703;29;20059;-92
2021/05/30 03:41:35;;;;;;;8.23;7.07;;;26.10;51.80;;;;;;4895234;29;20065;-94
2021/05/30 03:44:01;;;;;;;9.63;7.05;;;26.20;51.60;;;;;;4853080;29;20043;-93
2021/05/30 03:46:46;;;;;;;;;;;26.30;51.10;;;;;;4835826;29;20039;-92
2021/05/30 03:49:12;;;;;;;10.10;8.45;;;26.40;51.20;;;;;;4881257;29;19930;-94
2021/05/30 03:51:39;;;;;;;12.15;7.60;;;26.50;50.70;;;;;;4848497;29;20074;-93
2021/05/30 03:54:06;;;;;;;12.60;7.70;;;26.60;50.10;;;;;;4849474;29;20400;-94
2021/05/30 03:56:32;;;;;;;12.45;7.63;;;26.70;50.10;;;;;;4836613;29;20129;-92
2021/05/30 03:58:59;;;;;;;10.43;7.70;;;26.80;49.90;;;;;;4852393;29;20082;-93
2021/05/30 04:01:31;;;;;;;12.23;8.02;;;26.90;49.60;;;;;;4853085;29;20167;-94
2021/05/30 04:03:58;;;;;;;16.23;7.72;;;26.90;49.20;;;;;;4866966;29;20039;-91
2021/05/30 04:06:24;;;;;;;10.52;6.80;;;27.10;49.30;;;;;;4893453;29;20040;-90
2021/05/30 04:08:50;;;;;;;;;;;27.20;49.00;;;;;;4894674;29;20040;-92
2021/05/30 04:11:18;;;;;;;11.95;6.78;;;27.30;49.20;;;;;;4892136;29;19976;-90
2021/05/30 04:13:45;;;;;;;9.40;6.57;;;27.50;48.80;;;;;;4895564;29;20058;-95
2021/05/30 04:16:17;;;;;;;9.52;6.75;;;27.60;48.40;;;;;;4855800;29;20044;-94
2021/05/30 04:18:43;;;;;;;11.63;6.60;;;27.70;47.90;;;;;;4852050;29;20054;-91
2021/05/30 04:21:28;;;;;;;10.38;6.82;;;27.90;47.60;;;;;;4857469;29;20042;-92
2021/05/30 04:23:55;;;;;;;8.43;6.22;;;28.00;46.60;;;;;;4872844;29;20044;-91
2021/05/30 04:26:21;;;;;;;9.40;6.10;;;28.10;46.20;;;;;;4844154;29;20130;-92
2021/05/30 04:28:47;;;;;;;;;;;28.30;45.80;;;;;;4845819;29;20103;-91
2021/05/30 04:31:14;;;;;;;11.70;6.63;;;28.40;45.80;;;;;;4857580;29;19930;-91
2021/05/30 04:33:41;;;;;;;9.88;6.57;;;28.60;45.40;;;;;;4856607;29;20106;-93
2021/05/30 04:36:07;;;;;;;13.93;6.60;;;28.80;44.70;;;;;;4854011;29;20046;-91
2021/05/30 04:38:33;;;;;;;14.05;6.32;;;29.10;44.10;;;;;;4876242;29;20066;-90
2021/05/30 04:41:00;;;;;;;;;;;29.50;43.70;;;;;;4907497;29;20051;-91
2021/05/30 04:43:27;;;;;;;10.07;6.20;;;29.90;43.80;;;;;;4901449;29;19934;-92
2021/05/30 04:45:53;;;;;;;11.77;6.55;;;30.90;42.00;;;;;;4916081;29;20032;-91
2021/05/30 04:48:20;;;;;;;10.63;6.00;;;32.10;39.50;;;;;;4918885;29;20039;-91
2021/05/30 04:51:06;;;;;;;12.57;5.80;;;33.60;36.80;;;;;;4915726;29;20039;-92
2021/05/30 04:53:44;;;;;;;9.20;5.75;;;34.70;34.60;;;;;;4873970;29;20066;-92
2021/05/30 04:56:15;;;;;;;11.95;4.80;;;35.70;30.50;;;;;;4868863;29;20052;-90
2021/05/30 04:58:41;;;;;;;9.25;4.80;;;35.80;29.60;;;;;;4867590;29;20118;-91
2021/05/30 05:01:07;;;;;;;8.90;5.18;;;36.00;28.70;;;;;;4867206;29;20035;-89
2021/05/30 05:03:34;;;;;;;13.20;6.70;;;36.40;27.90;;;;;;4871833;29;20536;-91
2021/05/30 05:06:00;;;;;;;13.95;6.30;;;37.10;27.00;;;;;;4873427;29;20039;-89
2021/05/30 05:08:32;;;;;;;10.90;6.75;;;37.60;25.70;;;;;;4891564;29;20050;-96
2021/05/30 05:10:59;;;;;;;8.25;4.85;;;37.90;25.50;;;;;;4866717;29;20063;-94
2021/05/30 05:13:26;;;;;;;15.77;6.22;;;39.20;24.50;;;;;;4861540;29;20047;-95
2021/05/30 05:15:53;;;;;;;12.88;5.65;;;40.70;23.00;;;;;;4858981;29;20055;-94
2021/05/30 05:18:25;;;;;;;14.27;5.72;;;41.70;20.90;;;;;;4858809;29;20039;-92
2021/05/30 05:20:52;;;;;;;11.95;5.85;;;41.50;19.90;;;;;;4858038;29;20047;-96
2021/05/30 05:23:21;;;;;;;14.70;6.05;;;41.00;20.40;;;;;;4851038;29;20035;-92
2021/05/30 05:25:52;;;;;;;16.35;5.95;;;40.40;20.80;;;;;;4851779;29;20122;-91
2021/05/30 05:28:18;;;;;;;14.32;5.60;;;39.70;21.40;;;;;;4852471;29;20180;-91
2021/05/30 05:30:45;;;;;;;12.95;5.30;;;39.00;21.90;;;;;;4857338;29;20050;-92
2021/05/30 05:33:14;;;;;;;13.73;5.35;;;38.30;22.50;;;;;;4860450;29;20538;-93
2021/05/30 05:35:41;;;;;;;9.65;4.90;;;37.80;23.40;;;;;;4846263;29;20047;-94
2021/05/30 05:38:08;;;;;;;14.15;5.20;;;38.60;23.30;;;;;;4873331;29;20045;-94
2021/05/30 05:40:35;;;;;;;9.30;4.53;;;39.30;22.50;;;;;;4854530;29;20039;-92
2021/05/30 05:43:04;;;;;;;11.00;4.82;;;39.40;21.30;;;;;;4858574;29;20106;-93
2021/05/30 05:45:32;;;;;;;12.82;5.60;;;39.10;21.30;;;;;;4856256;29;20047;-92
2021/05/30 05:47:59;;;;;;;14.32;5.88;;;38.60;21.90;;;;;;4856359;29;20049;-94
2021/05/30 05:50:29;;;;;;;11.32;5.53;;;38.10;22.30;;;;;;4857178;29;20063;-94
2021/05/30 05:52:56;;;;;;;11.52;5.80;;;37.60;23.20;;;;;;4844862;29;20081;-94
2021/05/30 05:55:23;;;;;;;11.57;6.07;;;37.20;23.60;;;;;;4870203;29;20043;-96
2021/05/30 05:57:52;;;;;;;8.93;5.30;;;36.70;24.60;;;;;;4868764;29;20023;-96
2021/05/30 06:00:21;;;;;;;12.15;4.95;;;36.40;24.60;;;;;;4862369;29;20050;-94
2021/05/30 06:02:51;;;;;;;14.85;4.57;;;36.10;25.10;;;;;;4858475;29;20078;-96
2021/05/30 06:05:27;;;;;;;12.73;4.50;;;35.70;25.70;;;;;;4857917;29;20119;-96
2021/05/30 06:07:55;;;;;;;;;;;35.40;25.80;;;;;;4857959;29;20122;-95
2021/05/30 06:10:24;;;;;;;6.47;4.30;;;35.10;26.20;;;;;;4871966;29;19931;-96
2021/05/30 06:12:52;;;;;;;11.88;5.00;;;34.90;26.20;;;;;;4859263;29;20522;-94
2021/05/30 06:15:22;;;;;;;14.07;4.95;;;34.90;26.80;;;;;;4853457;29;20043;-93
2021/05/30 06:18:03;;;;;;;13.70;4.68;;;34.90;26.90;;;;;;4851581;29;20478;-93
2021/05/30 06:20:30;;;;;;;13.68;4.63;;;35.10;26.90;;;;;;4852452;29;20541;-92
2021/05/30 06:22:56;;;;;;;15.38;4.68;;;35.40;26.30;;;;;;4850852;29;20035;-94
2021/05/30 06:25:27;;;;;;;12.88;5.00;;;35.70;26.00;;;;;;4853941;29;20052;-96
2021/05/30 06:27:56;;;;;;;8.27;4.63;;;36.00;25.80;;;;;;4873340;29;20094;-95
2021/05/30 06:30:25;;;;;;;14.00;4.13;;;36.20;25.50;;;;;;4851561;29;20580;-95
2021/05/30 06:32:51;;;;;;;10.55;4.07;;;37.00;24.40;;;;;;4871725;29;20050;-94
2021/05/30 06:35:25;;;;;;;12.07;3.95;;;37.70;23.20;;;;;;4872904;29;20079;-95
2021/05/30 06:37:52;;;;;;;11.25;4.07;;;38.30;22.70;;;;;;4870859;29;20051;-93
2021/05/30 06:40:22;;;;;;;11.38;4.40;;;40.00;20.50;;;;;;4872790;29;20079;-96
2021/05/30 06:42:52;;;;;;;8.50;3.88;;;42.10;18.40;;;;;;4858229;29;20078;-95
2021/05/30 06:45:18;;;;;;;6.25;3.63;;;44.00;16.40;;;;;;4919273;29;20047;-96
2021/05/30 06:47:51;;;;;;;7.88;3.70;;;45.60;14.70;;;;;;4917917;29;20032;-95
2021/05/30 06:50:20;;;;;;;7.30;4.00;;;46.80;13.20;;;;;;4913555;29;20054;-96
2021/05/30 06:52:52;;;;;;;25.23;5.22;;;47.50;12.60;;;;;;4899402;29;20036;-96
2021/05/30 06:55:23;;;;;;;13.27;3.95;;;47.30;12.30;;;;;;4912281;29;20139;-96
2021/05/30 06:57:50;;;;;;;10.07;4.00;;;46.60;12.40;;;;;;4846030;29;20062;-94
2021/05/30 07:00:17;;;;;;;8.43;3.90;;;45.70;13.10;;;;;;4843522;29;20063;-89
2021/05/30 07:02:45;;;;;;;8.68;4.03;;;45.70;13.20;;;;;;4866150;29;20039;-95
2021/05/30 07:05:12;;;;;;;9.38;3.88;;;46.20;13.00;;;;;;4865834;29;20122;-94
2021/05/30 07:07:39;;;;;;;6.88;3.40;;;47.00;11.90;;;;;;4878568;29;20048;-96
2021/05/30 07:10:07;;;;;;;7.80;3.72;;;47.90;11.40;;;;;;4858346;29;20051;-96
2021/05/30 07:12:35;;;;;;;10.60;3.45;;;48.90;10.70;;;;;;4859409;29;20044;-95
2021/05/30 07:15:25;;;;;;;7.25;3.20;;;49.70;9.90;;;;;;4858190;29;20098;-95
2021/05/30 07:17:51;;;;;;;7.60;5.32;;;50.60;9.30;;;;;;4871728;29;20055;-96
2021/05/30 07:20:25;;;;;;;6.93;3.50;;;51.20;8.30;;;;;;4856232;29;20059;-95
2021/05/30 07:23:01;;;;;;;9.33;3.73;;;50.70;8.40;;;;;;4888992;29;20039;-96
2021/05/30 07:25:31;;;;;;;8.00;3.35;;;49.60;8.90;;;;;;4888347;29;20040;-95
2021/05/30 07:28:01;;;;;;;9.52;3.67;;;48.60;9.60;;;;;;4886579;29;20024;-95
2021/05/30 07:30:39;;;;;;;12.85;3.80;;;48.10;10.50;;;;;;4879523;29;20078;-96
2021/05/30 07:33:06;;;;;;;6.25;5.53;;;47.90;10.70;;;;;;4851576;29;20043;-96
2021/05/30 07:35:34;;;;;;;7.40;3.65;;;48.40;9.90;;;;;;4848876;29;20098;-95
2021/05/30 07:38:03;;;;;;;13.60;4.00;;;49.10;9.40;;;;;;4847491;29;20036;-94
2021/05/30 07:40:33;;;;;;;5.82;3.70;;;49.80;9.00;;;;;;4850448;29;20091;-95
2021/05/30 07:43:02;;;;;;;5.50;3.60;;;50.50;8.40;;;;;;4858670;29;20083;-95
2021/05/30 07:45:30;;;;;;;7.53;3.88;;;51.40;8.10;;;;;;4862029;29;20035;-96
2021/05/30 07:47:59;;;;;;;12.25;3.92;;;52.20;7.40;;;;;;4862115;29;20048;-96
2021/05/30 07:50:35;;;;;;;9.57;3.75;;;52.90;7.00;;;;;;4862858;29;20040;-96
2021/05/30 07:53:05;;;;;;;7.70;3.60;;;53.10;6.40;;;;;;4900006;29;20135;-96
2021/05/30 07:56:03;;;;;;;7.65;4.05;;;52.20;6.70;;;;;;4902870;29;20028;-96
2021/05/30 07:58:38;;;;;;;8.10;4.13;;;51.10;7.70;;;;;;4899520;29;20051;-94
2021/05/30 08:01:05;;;;;;;9.63;4.07;;;51.20;7.80;;;;;;4897955;29;20225;-95
2021/05/30 08:06:30;;;;;;;;;;;51.50;7.00;;;;;;4865063;29;20108;-96
2021/05/30 08:09:00;;;;;;;7.28;3.53;;;51.80;6.90;;;;;;4869047;29;20025;-96
2021/05/30 08:11:32;;;;;;;5.97;4.00;;;51.80;6.50;;;;;;4854868;29;20085;-96
2021/05/30 08:14:00;;;;;;;6.28;4.32;;;51.80;6.60;;;;;;4857841;29;20043;-96
2021/05/30 08:16:30;;;;;;;7.68;3.80;;;51.90;6.80;;;;;;4858327;29;20054;-96
2021/05/30 08:18:58;;;;;;;6.78;3.65;;;52.80;6.50;;;;;;4878418;24;20163;-93
2021/05/30 08:21:25;;;;;;;8.25;4.03;;;53.20;5.70;;;;;;4853405;29;20052;-95
2021/05/30 08:23:52;;;;;;;7.80;3.60;;;52.50;6.20;;;;;;4822852;29;20045;-95
2021/05/30 08:26:22;;;;;;;10.25;4.00;;;51.50;6.90;;;;;;4859990;29;20156;-95
2021/05/30 08:28:50;;;;;;;6.63;3.60;;;50.30;7.60;;;;;;4861782;29;20063;-96
2021/05/30 08:31:17;;;;;;;6.05;3.58;;;49.90;8.40;;;;;;4871484;29;20114;-96
2021/05/30 08:33:44;;;;;;;6.95;3.28;;;50.40;7.40;;;;;;4869179;29;20047;-96
2021/05/30 08:36:18;;;;;;;7.47;3.70;;;50.30;7.40;;;;;;4855059;29;20046;-96
2021/05/30 08:38:45;;;;;;;4.68;3.33;;;49.90;7.70;;;;;;4854431;29;20055;-96
2021/05/30 08:41:19;;;;;;;6.82;3.53;;;49.10;8.10;;;;;;4943642;23;20040;-96
2021/05/30 08:43:46;;;;;;;;;;;48.20;8.60;;;;;;4806771;29;20163;-96
2021/05/30 08:46:27;;;;;;;7.22;3.47;;;47.60;9.30;;;;;;4807346;29;19962;-94
2021/05/30 08:51:49;;;;;;;9.13;4.25;;;48.90;8.20;;;;;;5151937;23;20059;-96
2021/05/30 08:54:24;;;;;;;9.02;7.20;;;49.40;8.00;;;;;;4874071;29;20053;-96
2021/05/30 08:56:59;;;;;;;5.82;3.33;;;50.20;7.60;;;;;;4889335;29;20043;-96
2021/05/30 09:05:41;;;;;;;6.57;3.15;;;52.50;5.80;;;;;;4844102;29;20045;-96
2021/05/30 09:08:11;;;;;;;5.35;2.80;;;53.00;5.50;;;;;;4828224;29;20037;-95
2021/05/30 09:10:59;;;;;;;5.30;2.67;;;53.30;5.20;;;;;;4812483;29;20040;-95
2021/05/30 09:14:12;;;;;;;6.18;3.10;;;53.60;4.70;;;;;;4902769;24;20045;-96
2021/05/30 09:17:02;;;;;;;6.82;3.60;;;53.50;4.60;;;;;;4873030;29;20024;-95
2021/05/30 09:19:57;;;;;;;6.90;3.00;;;53.70;4.90;;;;;;4922853;24;20043;-95
2021/05/30 09:22:43;;;;;;;4.53;2.90;;;54.00;4.90;;;;;;4831428;29;20055;-96
2021/05/30 09:28:34;;;;;;;4.30;2.83;;;54.20;4.90;;;;;;5220053;23;20233;-96
2021/05/30 09:31:33;;;;;;;4.20;2.70;;;54.30;4.60;;;;;;4887167;24;20559;-96
2021/05/30 09:34:20;;;;;;;4.30;2.80;;;54.30;4.40;;;;;;4851322;29;20060;-95
2021/05/30 09:36:55;;;;;;;3.95;2.58;;;54.00;4.40;;;;;;4826597;29;20074;-96
2021/05/30 09:39:42;;;;;;;3.08;2.70;;;53.80;4.50;;;;;;4800605;29;20041;-96
2021/05/30 09:42:36;;;;;;;6.85;2.75;;;53.40;4.40;;;;;;4821944;29;20127;-96
2021/05/30 09:45:09;;;;;;;5.30;2.22;;;53.20;4.60;;;;;;4821643;29;20048;-95
2021/05/30 09:47:41;;;;;;;5.55;2.67;;;52.70;4.50;;;;;;4821505;29;20128;-94
2021/05/30 09:50:19;;;;;;;5.85;2.40;;;51.90;4.90;;;;;;4818874;29;20037;-95
2021/05/30 09:52:47;;;;;;;3.63;2.30;;;50.60;5.60;;;;;;4790878;29;20112;-96
2021/05/30 09:55:21;;;;;;;5.55;2.42;;;49.40;6.50;;;;;;4805385;29;20101;-95
2021/05/30 09:58:19;;;;;;;7.70;2.92;;;48.00;7.30;;;;;;4834276;29;20116;-94
2021/05/30 10:00:52;;;;;;;6.35;2.40;;;46.40;8.20;;;;;;4809208;29;20089;-96
2021/05/30 10:03:27;;;;;;;3.55;2.20;;;45.10;9.60;;;;;;4866477;29;20071;-96
2021/05/30 10:06:09;;;;;;;6.55;2.53;;;44.00;10.30;;;;;;4829935;29;20044;-96
2021/05/30 10:08:36;;;;;;;6.82;2.85;;;43.20;11.40;;;;;;4855220;29;20031;-94
2021/05/30 10:11:09;;;;;;;5.13;2.83;;;42.40;12.20;;;;;;4837471;29;20084;-95
2021/05/30 10:13:36;;;;;;;6.93;3.15;;;41.80;12.80;;;;;;4824162;29;20049;-95
2021/05/30 10:16:08;;;;;;;5.97;2.95;;;41.20;13.20;;;;;;4804321;29;20127;-95
2021/05/30 10:18:51;;;;;;;9.88;2.70;;;40.80;13.90;;;;;;4849870;29;20044;-95
2021/05/30 10:21:22;;;;;;;5.47;2.33;;;40.40;14.30;;;;;;4816700;29;20036;-95
2021/05/30 10:23:51;;;;;;;5.72;3.00;;;40.00;14.30;;;;;;4830255;29;20036;-94
2021/05/30 10:26:23;;;;;;;5.70;2.80;;;39.60;14.60;;;;;;4922342;23;20032;-95
2021/05/30 10:29:08;;;;;;;4.95;2.85;;;39.10;15.00;;;;;;5071727;24;20048;-96
2021/05/30 10:31:39;;;;;;;6.70;2.47;;;38.70;15.40;;;;;;4859198;29;20048;-96
2021/05/30 10:34:21;;;;;;;4.18;2.50;;;38.40;15.70;;;;;;4844298;29;20056;-95
2021/05/30 10:36:58;;;;;;;6.47;2.63;;;38.20;16.10;;;;;;4842275;29;20040;-96
2021/05/30 10:39:37;;;;;;;6.85;3.70;;;38.00;16.40;;;;;;4850817;29;20047;-94
2021/05/30 10:52:06;;;;;;;9.65;5.15;;;37.00;19.40;;;;;;5141140;28;20047;-94
2021/05/30 10:54:38;;;;;;;9.45;4.55;;;36.40;20.20;;;;;;5078702;28;20043;-94
2021/05/30 10:57:25;;;;;;;7.10;4.63;;;36.10;20.70;;;;;;5160607;23;20038;-95
2021/05/30 10:59:56;;;;;;;6.22;4.47;;;35.90;21.00;;;;;;5202274;23;20037;-95
2021/05/30 11:03:06;;;;;;;8.98;4.70;;;35.80;21.30;;;;;;5009689;28;20048;-96
2021/05/30 11:05:58;;;;;;;6.82;4.60;;;35.70;21.50;;;;;;4992315;28;20037;-96
2021/05/30 11:08:33;;;;;;;8.02;5.32;;;35.60;21.60;;;;;;4992206;28;20022;-96
